PASM Airport Information

Runway Information
Runway 06 Length 1900 ft width 60 ft
Elevation 311 ft Threshold 0 ft Heading 77
Runway 24 Length 1900 ft Width 60 ft
Elevation 301 ft Threshold 375 ft Heading 257
Runway 17 Length 6003 ft width 150 ft
Elevation 282 ft Threshold 0 ft Heading 182
Runway 35 Length 6003 ft Width 150 ft
Elevation 303 ft Threshold 0 ft Heading 2
Airport Frequencies
Type AWOS Name AWOS 3 Frequency 128.7 MHZ
Type CNTR Name ANCHORAGE Frequency 124 MHZ
Type CTAF Name CTAF Frequency 122.3 MHZ
Type FSS Name KENAI RDO Frequency 122.35 MHZ
Type MISC Name TWEB Frequency 23 MHZ
Airport Navaids
Type NDB Name Saint Marys Frequency 230 KHZ
Airport Weather Information & NOTAM
ADDS - METARS form results

(0845 UTC 24 April 2018)
 
METAR text: PASM 240756Z AUTO 10013KT 10SM -RA FEW028 BKN036 OVC050 02/M01 A2924 RMK AO2 RAB49 SLP919 P0000 T00171006 400331011 FZRANO
Conditions at: PASM (SAINT MARYS , AK, US) observed 0756 UTC 24 April 2018
Temperature: 1.7°C (35°F)
Dewpoint: -0.6°C (31°F) [RH = 85%]
Pressure (altimeter): 29.24 inches Hg (990.3 mb)
[Sea-level pressure: 991.9 mb]
Winds: from the E (100 degrees) at 15 MPH (13 knots; 6.8 m/s)
Visibility: 10 or more miles (16+ km)
Ceiling: 3600 feet AGL
Clouds: few clouds at 2800 feet AGL
broken clouds at 3600 feet AGL
overcast cloud deck at 5000 feet AGL
Weather: -RA  (light rain)